AIC161 VIDP-EGLL
Flight info
| Callsign | AIC161 |
|---|---|
| Flight time | N/A |
| Altitude | 34000 |
| Route | DUDUM6C DUDUM Q2 NIKOT R462 UUD J61 LAXOM L639 RASKI N881 KIPOL L444 TOLDA M628 TULBU G652 TOKRA DCT ALROK DCT BOSOB/N0491F360 DCT ITRUX Y511 PMA Z712 WEJ L677 CVO L617 MENKU/N0477F380 L617 TANSA UL617 SIT DCT TSL UM987 ATFIR N133 LOMOS DCT SAT DCT PITOK DCT SLC DCT MAKAL DCT HDO/N0484F400 DCT KOSIX L986 SAS L980 LOGAN |
| Aircraft | B77L/H-SDE1E2E3FGHIJ2J3J4J5M1RWXY/LB1D1 |
Departure
| Time | N/A |
|---|---|
| Airport | Indira Gandhi International Airport (VIDP) |
Arrival
| Time | 2026-05-07 03:11 |
|---|---|
| Airport | London Heathrow Airport (EGLL) |
| Time | Latitude | Longitude | Altitude | Speed | Heading |
|---|---|---|---|---|---|
| 2026-05-07 00:27 | 44.55487 | 23.18768 | 34022 ft | 466 kts | 352° |
| 2026-05-07 00:27 | 44.58724 | 23.18486 | 34022 ft | 466 kts | 352° |
| 2026-05-07 00:27 | 44.64759 | 23.17956 | 34025 ft | 466 kts | 352° |
| 2026-05-07 00:28 | 44.71243 | 23.17386 | 34027 ft | 466 kts | 352° |
| 2026-05-07 00:28 | 44.77672 | 23.16820 | 34028 ft | 466 kts | 351° |
| 2026-05-07 00:29 | 44.84154 | 23.16249 | 34040 ft | 466 kts | 351° |
| 2026-05-07 00:30 | 44.97103 | 23.15103 | 34045 ft | 467 kts | 351° |
| 2026-05-07 00:30 | 45.03603 | 23.14527 | 34048 ft | 467 kts | 351° |
| 2026-05-07 00:31 | 45.10095 | 23.13948 | 34052 ft | 467 kts | 351° |
| 2026-05-07 00:31 | 45.16565 | 23.13368 | 34063 ft | 468 kts | 352° |
| 2026-05-07 00:32 | 45.23087 | 23.12780 | 34042 ft | 470 kts | 352° |
| 2026-05-07 00:32 | 45.29597 | 23.12199 | 34065 ft | 471 kts | 352° |
| 2026-05-07 00:33 | 45.36166 | 23.11605 | 34038 ft | 474 kts | 352° |
| 2026-05-07 00:33 | 45.42773 | 23.11008 | 34033 ft | 476 kts | 353° |
| 2026-05-07 00:34 | 45.49363 | 23.10414 | 34034 ft | 478 kts | 353° |
| 2026-05-07 00:34 | 45.56012 | 23.09814 | 34043 ft | 479 kts | 353° |
| 2026-05-07 00:35 | 45.62670 | 23.09212 | 34029 ft | 480 kts | 353° |
| 2026-05-07 00:35 | 45.68226 | 23.08709 | 34024 ft | 481 kts | 353° |
| 2026-05-07 00:36 | 45.76027 | 23.07999 | 34022 ft | 483 kts | 354° |
| 2026-05-07 00:36 | 45.82756 | 23.07385 | 34015 ft | 484 kts | 354° |
| 2026-05-07 00:37 | 45.88353 | 23.06874 | 34031 ft | 484 kts | 354° |
| 2026-05-07 00:37 | 45.96186 | 23.06156 | 34023 ft | 485 kts | 354° |
| 2026-05-07 00:38 | 46.01805 | 23.05639 | 34022 ft | 486 kts | 354° |
| 2026-05-07 00:38 | 46.08588 | 23.05014 | 34027 ft | 486 kts | 354° |
| 2026-05-07 00:39 | 46.15318 | 23.04394 | 34026 ft | 487 kts | 354° |
| 2026-05-07 00:39 | 46.22055 | 23.03770 | 34023 ft | 487 kts | 354° |
| 2026-05-07 00:40 | 46.28838 | 23.03140 | 34033 ft | 487 kts | 354° |
| 2026-05-07 00:40 | 46.35610 | 23.02511 | 34024 ft | 487 kts | 354° |
| 2026-05-07 00:41 | 46.42344 | 23.01882 | 34029 ft | 487 kts | 354° |
| 2026-05-07 00:41 | 46.49124 | 23.01247 | 34025 ft | 487 kts | 354° |
| 2026-05-07 00:42 | 46.55862 | 23.00616 | 34028 ft | 487 kts | 354° |
| 2026-05-07 00:42 | 46.62643 | 22.99979 | 34031 ft | 487 kts | 354° |
| 2026-05-07 00:43 | 46.69377 | 22.99344 | 34025 ft | 487 kts | 354° |
| 2026-05-07 00:43 | 46.76155 | 22.98703 | 34017 ft | 487 kts | 354° |
| 2026-05-07 00:44 | 46.82945 | 22.98060 | 34014 ft | 488 kts | 354° |
| 2026-05-07 00:44 | 46.89691 | 22.97419 | 34014 ft | 488 kts | 354° |
| 2026-05-07 00:45 | 46.96472 | 22.96774 | 34009 ft | 488 kts | 354° |
| 2026-05-07 00:45 | 47.03225 | 22.96129 | 34000 ft | 488 kts | 354° |
| 2026-05-07 00:46 | 47.10023 | 22.95478 | 34004 ft | 488 kts | 354° |
| 2026-05-07 00:46 | 47.16816 | 22.94826 | 33990 ft | 489 kts | 354° |
| 2026-05-07 00:47 | 47.23564 | 22.94177 | 33992 ft | 489 kts | 354° |
| 2026-05-07 00:47 | 47.30359 | 22.93523 | 33987 ft | 489 kts | 354° |
| 2026-05-07 00:48 | 47.37155 | 22.92866 | 33974 ft | 489 kts | 354° |
| 2026-05-07 00:48 | 47.43919 | 22.92210 | 33962 ft | 489 kts | 354° |
| 2026-05-07 00:49 | 47.50730 | 22.91548 | 33946 ft | 489 kts | 354° |
| 2026-05-07 00:49 | 47.57535 | 22.90884 | 33953 ft | 489 kts | 354° |
| 2026-05-07 00:50 | 47.64303 | 22.90223 | 33940 ft | 490 kts | 354° |
| 2026-05-07 00:50 | 47.70960 | 22.88825 | 33936 ft | 475 kts | 342° |
| 2026-05-07 00:51 | 47.73979 | 22.86895 | 33937 ft | 474 kts | 322° |
| 2026-05-07 00:51 | 47.76357 | 22.83532 | 33936 ft | 476 kts | 303° |
| 2026-05-07 00:51 | 47.77807 | 22.79163 | 33954 ft | 470 kts | 283° |
| 2026-05-07 00:51 | 47.78332 | 22.74395 | 33964 ft | 462 kts | 273° |
| 2026-05-07 00:52 | 47.78558 | 22.69752 | 33940 ft | 451 kts | 272° |
| 2026-05-07 00:52 | 47.78878 | 22.65093 | 33930 ft | 452 kts | 277° |
| 2026-05-07 00:52 | 47.80877 | 22.56110 | 33948 ft | 473 kts | 293° |
| 2026-05-07 00:53 | 47.83771 | 22.47442 | 33935 ft | 462 kts | 292° |
| 2026-05-07 00:53 | 47.85973 | 22.38516 | 33948 ft | 456 kts | 284° |
| 2026-05-07 00:54 | 47.87769 | 22.29268 | 33944 ft | 472 kts | 284° |
| 2026-05-07 00:54 | 47.89768 | 22.20034 | 33930 ft | 469 kts | 286° |
| 2026-05-07 00:55 | 47.91977 | 22.10876 | 33931 ft | 467 kts | 287° |
| 2026-05-07 00:55 | 47.94211 | 22.01867 | 33934 ft | 465 kts | 287° |
| 2026-05-07 00:56 | 47.96430 | 21.92795 | 33937 ft | 465 kts | 287° |
| 2026-05-07 00:56 | 47.98620 | 21.83686 | 33944 ft | 465 kts | 287° |
| 2026-05-07 00:57 | 48.00793 | 21.74560 | 33941 ft | 466 kts | 287° |
| 2026-05-07 00:57 | 48.02950 | 21.65473 | 33942 ft | 467 kts | 287° |
| 2026-05-07 00:58 | 48.05120 | 21.56303 | 33940 ft | 467 kts | 287° |
| 2026-05-07 00:58 | 48.07278 | 21.47152 | 33935 ft | 467 kts | 287° |
| 2026-05-07 00:59 | 48.10501 | 21.33419 | 33933 ft | 467 kts | 287° |
| 2026-05-07 01:00 | 48.12644 | 21.24236 | 33930 ft | 467 kts | 287° |
| 2026-05-07 01:00 | 48.14783 | 21.15027 | 33922 ft | 466 kts | 287° |
| 2026-05-07 01:01 | 48.16906 | 21.05852 | 33927 ft | 466 kts | 287° |
| 2026-05-07 01:01 | 48.19008 | 20.96727 | 33926 ft | 465 kts | 287° |
| 2026-05-07 01:02 | 48.21115 | 20.87541 | 33921 ft | 464 kts | 287° |
| 2026-05-07 01:02 | 48.23198 | 20.78420 | 33931 ft | 464 kts | 287° |
| 2026-05-07 01:03 | 48.25280 | 20.69261 | 33923 ft | 463 kts | 286° |
| 2026-05-07 01:03 | 48.27352 | 20.60113 | 33926 ft | 462 kts | 286° |
| 2026-05-07 01:04 | 48.29411 | 20.50980 | 33928 ft | 461 kts | 286° |
| 2026-05-07 01:04 | 48.31460 | 20.41858 | 33930 ft | 460 kts | 286° |
| 2026-05-07 01:05 | 48.33260 | 20.32819 | 33918 ft | 448 kts | 281° |
| 2026-05-07 01:05 | 48.34341 | 20.23580 | 33932 ft | 446 kts | 275° |
| 2026-05-07 01:06 | 48.35058 | 20.14322 | 33942 ft | 455 kts | 275° |
| 2026-05-07 01:06 | 48.35908 | 20.04757 | 33923 ft | 461 kts | 276° |
| 2026-05-07 01:07 | 48.36891 | 19.95259 | 33913 ft | 457 kts | 277° |
| 2026-05-07 01:07 | 48.37891 | 19.85882 | 33919 ft | 454 kts | 277° |
| 2026-05-07 01:08 | 48.38871 | 19.76487 | 33917 ft | 454 kts | 276° |
| 2026-05-07 01:08 | 48.39824 | 19.67116 | 33913 ft | 455 kts | 276° |
| 2026-05-07 01:09 | 48.40773 | 19.57678 | 33920 ft | 456 kts | 276° |
| 2026-05-07 01:09 | 48.41717 | 19.48217 | 33911 ft | 457 kts | 276° |
| 2026-05-07 01:10 | 48.42651 | 19.38791 | 33920 ft | 458 kts | 276° |
| 2026-05-07 01:10 | 48.43573 | 19.29418 | 33912 ft | 449 kts | 275° |
| 2026-05-07 01:11 | 48.44479 | 19.20125 | 33913 ft | 448 kts | 275° |
| 2026-05-07 01:11 | 48.45046 | 19.15440 | 33921 ft | 459 kts | 279° |
| 2026-05-07 01:11 | 48.45894 | 19.10848 | 33904 ft | 459 kts | 285° |
| 2026-05-07 01:11 | 48.47262 | 19.06473 | 33888 ft | 471 kts | 302° |
| 2026-05-07 01:12 | 48.49617 | 19.02916 | 33918 ft | 489 kts | 320° |
| 2026-05-07 01:12 | 48.55503 | 18.97904 | 33904 ft | 478 kts | 328° |
| 2026-05-07 01:13 | 48.61174 | 18.92833 | 33905 ft | 473 kts | 321° |
| 2026-05-07 01:13 | 48.66437 | 18.86913 | 33903 ft | 470 kts | 317° |
| 2026-05-07 01:14 | 48.71546 | 18.80699 | 33901 ft | 470 kts | 317° |
| 2026-05-07 01:14 | 48.76621 | 18.74537 | 33892 ft | 470 kts | 317° |
| 2026-05-07 01:15 | 48.81770 | 18.68369 | 33891 ft | 470 kts | 317° |
| 2026-05-07 01:15 | 48.86916 | 18.62224 | 33863 ft | 470 kts | 317° |
| 2026-05-07 01:16 | 48.92064 | 18.56058 | 33858 ft | 470 kts | 317° |
| 2026-05-07 01:16 | 48.97169 | 18.49915 | 33855 ft | 471 kts | 317° |
| 2026-05-07 01:17 | 49.02309 | 18.43708 | 33858 ft | 471 kts | 317° |
| 2026-05-07 01:17 | 49.07447 | 18.37489 | 33862 ft | 471 kts | 317° |
| 2026-05-07 01:18 | 49.12552 | 18.31293 | 33863 ft | 472 kts | 316° |
| 2026-05-07 01:18 | 49.17706 | 18.25022 | 33846 ft | 472 kts | 316° |
| 2026-05-07 01:19 | 49.22819 | 18.18709 | 33833 ft | 470 kts | 313° |
| 2026-05-07 01:19 | 49.27161 | 18.11472 | 33840 ft | 463 kts | 301° |
| 2026-05-07 01:20 | 49.30773 | 18.03087 | 33844 ft | 474 kts | 297° |
| 2026-05-07 01:20 | 49.34388 | 17.94670 | 33825 ft | 470 kts | 300° |
| 2026-05-07 01:21 | 49.38173 | 17.86588 | 33818 ft | 469 kts | 302° |
| 2026-05-07 01:21 | 49.42170 | 17.78659 | 33824 ft | 467 kts | 303° |
| 2026-05-07 01:22 | 49.46131 | 17.70794 | 33815 ft | 467 kts | 302° |
| 2026-05-07 01:22 | 49.49359 | 17.64097 | 33825 ft | 466 kts | 301° |
| 2026-05-07 01:23 | 49.53150 | 17.55972 | 33821 ft | 467 kts | 300° |
| 2026-05-07 01:23 | 49.56884 | 17.47867 | 33826 ft | 467 kts | 300° |
| 2026-05-07 01:24 | 49.60650 | 17.39686 | 33822 ft | 467 kts | 300° |
| 2026-05-07 01:24 | 49.64425 | 17.31494 | 33820 ft | 467 kts | 300° |
| 2026-05-07 01:25 | 49.68190 | 17.23314 | 33821 ft | 466 kts | 300° |
| 2026-05-07 01:25 | 49.71916 | 17.15193 | 33832 ft | 467 kts | 300° |
| 2026-05-07 01:25 | 49.73803 | 17.11062 | 34058 ft | 472 kts | 300° |
| 2026-05-07 01:26 | 49.75696 | 17.06914 | 34515 ft | 470 kts | 300° |
| 2026-05-07 01:26 | 49.77566 | 17.02814 | 35006 ft | 469 kts | 299° |
| 2026-05-07 01:26 | 49.79446 | 16.98688 | 35445 ft | 468 kts | 299° |
| 2026-05-07 01:26 | 49.81316 | 16.94572 | 35839 ft | 469 kts | 299° |
| 2026-05-07 01:27 | 49.83203 | 16.90413 | 36191 ft | 471 kts | 299° |
| 2026-05-07 01:27 | 49.85079 | 16.86269 | 36558 ft | 472 kts | 299° |
| 2026-05-07 01:27 | 49.86969 | 16.82088 | 36941 ft | 472 kts | 299° |
| 2026-05-07 01:27 | 49.88854 | 16.77912 | 37317 ft | 473 kts | 299° |
| 2026-05-07 01:28 | 49.90751 | 16.73705 | 37682 ft | 474 kts | 300° |
| 2026-05-07 01:28 | 49.92641 | 16.69507 | 38011 ft | 475 kts | 300° |
| 2026-05-07 01:28 | 49.94528 | 16.65309 | 38378 ft | 476 kts | 300° |
| 2026-05-07 01:28 | 49.96411 | 16.61112 | 38660 ft | 477 kts | 300° |
| 2026-05-07 01:29 | 49.98304 | 16.56888 | 38942 ft | 477 kts | 300° |
| 2026-05-07 01:29 | 50.00197 | 16.52656 | 39227 ft | 477 kts | 300° |
| 2026-05-07 01:29 | 50.02095 | 16.48409 | 39520 ft | 477 kts | 300° |
| 2026-05-07 01:29 | 50.03987 | 16.44165 | 39741 ft | 478 kts | 300° |
| 2026-05-07 01:30 | 50.05895 | 16.39880 | 39779 ft | 481 kts | 300° |
| 2026-05-07 01:30 | 50.09686 | 16.31347 | 39812 ft | 479 kts | 300° |
| 2026-05-07 01:31 | 50.13460 | 16.22832 | 39821 ft | 475 kts | 300° |
| 2026-05-07 01:31 | 50.17205 | 16.14350 | 39820 ft | 472 kts | 300° |
| 2026-05-07 01:32 | 50.20895 | 16.05961 | 39825 ft | 471 kts | 300° |
| 2026-05-07 01:32 | 50.24611 | 15.97481 | 39832 ft | 471 kts | 300° |
| 2026-05-07 01:33 | 50.28293 | 15.89055 | 39836 ft | 471 kts | 300° |
| 2026-05-07 01:33 | 50.31990 | 15.80570 | 39833 ft | 472 kts | 300° |
| 2026-05-07 01:34 | 50.35674 | 15.72087 | 39832 ft | 473 kts | 300° |
| 2026-05-07 01:34 | 50.39355 | 15.63587 | 39836 ft | 473 kts | 300° |
| 2026-05-07 01:35 | 50.43061 | 15.54996 | 39834 ft | 473 kts | 300° |
| 2026-05-07 01:35 | 50.46724 | 15.46480 | 39831 ft | 473 kts | 300° |
| 2026-05-07 01:36 | 50.50414 | 15.37873 | 39823 ft | 474 kts | 300° |
| 2026-05-07 01:36 | 50.54088 | 15.29276 | 39812 ft | 474 kts | 300° |
| 2026-05-07 01:37 | 50.57734 | 15.20715 | 39835 ft | 473 kts | 300° |
| 2026-05-07 01:37 | 50.61393 | 15.12094 | 39837 ft | 473 kts | 299° |
| 2026-05-07 01:38 | 50.65040 | 15.03474 | 39818 ft | 473 kts | 299° |
| 2026-05-07 01:38 | 50.68675 | 14.94854 | 39821 ft | 473 kts | 299° |
| 2026-05-07 01:39 | 50.72316 | 14.86189 | 39818 ft | 473 kts | 299° |
| 2026-05-07 01:39 | 50.75927 | 14.77568 | 39827 ft | 473 kts | 299° |
| 2026-05-07 01:40 | 50.79563 | 14.68859 | 39825 ft | 473 kts | 299° |
| 2026-05-07 01:40 | 50.83187 | 14.60151 | 39832 ft | 474 kts | 299° |
| 2026-05-07 01:41 | 50.86787 | 14.51467 | 39830 ft | 474 kts | 299° |
| 2026-05-07 01:41 | 50.90410 | 14.42705 | 39828 ft | 474 kts | 299° |
| 2026-05-07 01:42 | 50.94077 | 14.34052 | 39811 ft | 476 kts | 302° |
| 2026-05-07 01:42 | 50.98119 | 14.25767 | 39798 ft | 469 kts | 306° |
| 2026-05-07 01:43 | 51.02376 | 14.18002 | 39816 ft | 463 kts | 308° |
| 2026-05-07 01:43 | 51.06671 | 14.10290 | 39833 ft | 474 kts | 307° |
| 2026-05-07 01:44 | 51.10986 | 14.02202 | 39831 ft | 483 kts | 306° |
| 2026-05-07 01:44 | 51.15271 | 13.93943 | 39826 ft | 484 kts | 305° |
| 2026-05-07 01:45 | 51.19555 | 13.85619 | 39829 ft | 485 kts | 305° |
| 2026-05-07 01:45 | 51.23807 | 13.77351 | 39832 ft | 484 kts | 305° |
| 2026-05-07 01:46 | 51.28074 | 13.69049 | 39828 ft | 483 kts | 305° |
| 2026-05-07 01:46 | 51.32339 | 13.60727 | 39832 ft | 483 kts | 305° |
| 2026-05-07 01:47 | 51.36592 | 13.52397 | 39838 ft | 482 kts | 305° |
| 2026-05-07 01:47 | 51.40829 | 13.44070 | 39841 ft | 481 kts | 305° |
| 2026-05-07 01:48 | 51.45017 | 13.35811 | 39845 ft | 481 kts | 305° |
| 2026-05-07 01:48 | 51.49243 | 13.27451 | 39849 ft | 481 kts | 305° |
| 2026-05-07 01:49 | 51.53444 | 13.19114 | 39859 ft | 481 kts | 305° |
| 2026-05-07 01:49 | 51.57651 | 13.10738 | 39855 ft | 481 kts | 305° |
| 2026-05-07 01:50 | 51.61858 | 13.02334 | 39862 ft | 482 kts | 305° |
| 2026-05-07 01:50 | 51.66056 | 12.93922 | 39856 ft | 482 kts | 305° |
| 2026-05-07 01:51 | 51.70235 | 12.85519 | 39860 ft | 483 kts | 305° |
| 2026-05-07 01:51 | 51.74442 | 12.77033 | 39861 ft | 483 kts | 305° |
| 2026-05-07 01:52 | 51.78616 | 12.68584 | 39865 ft | 484 kts | 305° |
| 2026-05-07 01:52 | 51.82814 | 12.60058 | 39869 ft | 484 kts | 305° |
| 2026-05-07 01:53 | 51.87006 | 12.51493 | 39874 ft | 484 kts | 303° |
| 2026-05-07 01:53 | 51.90658 | 12.42513 | 39854 ft | 470 kts | 293° |
| 2026-05-07 01:53 | 51.91728 | 12.37563 | 39880 ft | 463 kts | 276° |
| 2026-05-07 01:54 | 51.92047 | 12.32372 | 39901 ft | 460 kts | 270° |
| 2026-05-07 01:54 | 51.93142 | 12.22224 | 39902 ft | 468 kts | 285° |
| 2026-05-07 01:55 | 51.95238 | 12.12303 | 39883 ft | 460 kts | 282° |
| 2026-05-07 01:55 | 51.96477 | 12.02175 | 39893 ft | 462 kts | 276° |
| 2026-05-07 01:56 | 51.97680 | 11.91756 | 39894 ft | 474 kts | 279° |
| 2026-05-07 01:56 | 51.99202 | 11.81329 | 39874 ft | 475 kts | 281° |
| 2026-05-07 01:57 | 52.00714 | 11.70957 | 39870 ft | 476 kts | 280° |
| 2026-05-07 01:57 | 52.02178 | 11.60462 | 39865 ft | 475 kts | 280° |
| 2026-05-07 01:58 | 52.03628 | 11.49981 | 39869 ft | 474 kts | 280° |
| 2026-05-07 01:58 | 52.05064 | 11.39621 | 39878 ft | 473 kts | 280° |
| 2026-05-07 01:59 | 52.06505 | 11.29170 | 39884 ft | 472 kts | 280° |
| 2026-05-07 01:59 | 52.07935 | 11.18762 | 39896 ft | 471 kts | 279° |
| 2026-05-07 02:00 | 52.09348 | 11.08419 | 39883 ft | 471 kts | 279° |
| 2026-05-07 02:00 | 52.10761 | 10.97991 | 39891 ft | 470 kts | 279° |
| 2026-05-07 02:01 | 52.12161 | 10.87589 | 39901 ft | 470 kts | 279° |
| 2026-05-07 02:01 | 52.13545 | 10.77242 | 39907 ft | 471 kts | 279° |
| 2026-05-07 02:02 | 52.14939 | 10.66814 | 39901 ft | 471 kts | 279° |
| 2026-05-07 02:02 | 52.16328 | 10.56357 | 39905 ft | 471 kts | 279° |
| 2026-05-07 02:03 | 52.17702 | 10.45935 | 39908 ft | 472 kts | 279° |
| 2026-05-07 02:03 | 52.19073 | 10.35450 | 39910 ft | 472 kts | 279° |
| 2026-05-07 02:04 | 52.20425 | 10.25034 | 39905 ft | 473 kts | 279° |
| 2026-05-07 02:04 | 52.21780 | 10.14510 | 39906 ft | 473 kts | 279° |
| 2026-05-07 02:05 | 52.23126 | 10.03987 | 39901 ft | 473 kts | 279° |
| 2026-05-07 02:05 | 52.24449 | 9.93533 | 39903 ft | 473 kts | 278° |
| 2026-05-07 02:06 | 52.25302 | 9.83011 | 39894 ft | 458 kts | 269° |
| 2026-05-07 02:06 | 52.24978 | 9.72704 | 39913 ft | 463 kts | 263° |
| 2026-05-07 02:07 | 52.24403 | 9.62084 | 39917 ft | 472 kts | 264° |
| 2026-05-07 02:07 | 52.23920 | 9.45965 | 39915 ft | 475 kts | 266° |
| 2026-05-07 02:08 | 52.23650 | 9.35154 | 39906 ft | 475 kts | 265° |
| 2026-05-07 02:08 | 52.23327 | 9.24453 | 39912 ft | 473 kts | 265° |
| 2026-05-07 02:09 | 52.22974 | 9.13782 | 39907 ft | 471 kts | 265° |
| 2026-05-07 02:09 | 52.22616 | 9.03084 | 39903 ft | 470 kts | 265° |
| 2026-05-07 02:10 | 52.22262 | 8.92440 | 39914 ft | 469 kts | 265° |
| 2026-05-07 02:10 | 52.21911 | 8.81892 | 39915 ft | 468 kts | 265° |
| 2026-05-07 02:11 | 52.21611 | 8.73084 | 39918 ft | 468 kts | 265° |
| 2026-05-07 02:11 | 52.21238 | 8.62463 | 39924 ft | 468 kts | 265° |
| 2026-05-07 02:12 | 52.20857 | 8.51869 | 39923 ft | 468 kts | 265° |
| 2026-05-07 02:12 | 52.20465 | 8.41232 | 39929 ft | 469 kts | 265° |
| 2026-05-07 02:13 | 52.20075 | 8.30604 | 39940 ft | 469 kts | 265° |
| 2026-05-07 02:13 | 52.19685 | 8.20039 | 39939 ft | 470 kts | 265° |
| 2026-05-07 02:14 | 52.19294 | 8.09391 | 39941 ft | 470 kts | 265° |
| 2026-05-07 02:14 | 52.18897 | 7.98799 | 39953 ft | 471 kts | 265° |
| 2026-05-07 02:15 | 52.18485 | 7.88145 | 39959 ft | 471 kts | 265° |
| 2026-05-07 02:15 | 52.18064 | 7.77464 | 39960 ft | 471 kts | 265° |
| 2026-05-07 02:16 | 52.17666 | 7.66807 | 39969 ft | 471 kts | 265° |
| 2026-05-07 02:16 | 52.17219 | 7.56186 | 39969 ft | 471 kts | 264° |
| 2026-05-07 02:17 | 52.16696 | 7.45533 | 39961 ft | 471 kts | 264° |
| 2026-05-07 02:17 | 52.16168 | 7.34860 | 39958 ft | 471 kts | 264° |
| 2026-05-07 02:18 | 52.15653 | 7.24275 | 39953 ft | 471 kts | 264° |
| 2026-05-07 02:18 | 52.15129 | 7.13637 | 39954 ft | 471 kts | 264° |
| 2026-05-07 02:19 | 52.14591 | 7.02970 | 39955 ft | 472 kts | 264° |
| 2026-05-07 02:19 | 52.14049 | 6.92318 | 39960 ft | 472 kts | 264° |
| 2026-05-07 02:20 | 52.13566 | 6.81662 | 39953 ft | 472 kts | 267° |
| 2026-05-07 02:20 | 52.14048 | 6.71248 | 39953 ft | 466 kts | 285° |
| 2026-05-07 02:21 | 52.16732 | 6.61576 | 39966 ft | 467 kts | 295° |
| 2026-05-07 02:21 | 52.19111 | 6.51822 | 39975 ft | 462 kts | 285° |
| 2026-05-07 02:22 | 52.20994 | 6.41632 | 39984 ft | 474 kts | 286° |
| 2026-05-07 02:22 | 52.23151 | 6.31433 | 39985 ft | 480 kts | 288° |
| 2026-05-07 02:23 | 52.25442 | 6.21174 | 39987 ft | 481 kts | 288° |
| 2026-05-07 02:23 | 52.27684 | 6.10882 | 39988 ft | 480 kts | 288° |
| 2026-05-07 02:24 | 52.29896 | 6.00583 | 39989 ft | 479 kts | 288° |
| 2026-05-07 02:24 | 52.32090 | 5.90342 | 39992 ft | 477 kts | 288° |
| 2026-05-07 02:25 | 52.34267 | 5.80158 | 39990 ft | 476 kts | 288° |
| 2026-05-07 02:25 | 52.36439 | 5.69951 | 39993 ft | 474 kts | 288° |
| 2026-05-07 02:26 | 52.38133 | 5.59687 | 39976 ft | 460 kts | 275° |
| 2026-05-07 02:26 | 52.38116 | 5.54421 | 40006 ft | 463 kts | 261° |
| 2026-05-07 02:26 | 52.37438 | 5.49337 | 39999 ft | 464 kts | 254° |
| 2026-05-07 02:27 | 52.36143 | 5.39060 | 39996 ft | 461 kts | 263° |
| 2026-05-07 02:27 | 52.35482 | 5.28450 | 40008 ft | 474 kts | 262° |
| 2026-05-07 02:28 | 52.34478 | 5.17806 | 40001 ft | 477 kts | 259° |
| 2026-05-07 02:28 | 52.33207 | 5.07212 | 39998 ft | 466 kts | 255° |
| 2026-05-07 02:29 | 52.31189 | 4.97117 | 40021 ft | 468 kts | 249° |
| 2026-05-07 02:29 | 52.28944 | 4.87155 | 40028 ft | 472 kts | 250° |
| 2026-05-07 02:30 | 52.26793 | 4.76953 | 40027 ft | 475 kts | 251° |
| 2026-05-07 02:30 | 52.24686 | 4.66690 | 40022 ft | 477 kts | 251° |
| 2026-05-07 02:31 | 52.22545 | 4.56469 | 40019 ft | 478 kts | 251° |
| 2026-05-07 02:31 | 52.20389 | 4.46226 | 40019 ft | 477 kts | 251° |
| 2026-05-07 02:32 | 52.18238 | 4.36031 | 40019 ft | 475 kts | 251° |
| 2026-05-07 02:32 | 52.16096 | 4.25917 | 40015 ft | 473 kts | 251° |
| 2026-05-07 02:33 | 52.13944 | 4.15815 | 40020 ft | 472 kts | 250° |
| 2026-05-07 02:33 | 52.11786 | 4.05734 | 40025 ft | 471 kts | 250° |
| 2026-05-07 02:34 | 52.09632 | 3.95715 | 40024 ft | 470 kts | 250° |
| 2026-05-07 02:34 | 52.07465 | 3.85684 | 40023 ft | 470 kts | 250° |
| 2026-05-07 02:35 | 52.05282 | 3.75623 | 40024 ft | 470 kts | 250° |
| 2026-05-07 02:35 | 52.03114 | 3.65656 | 40025 ft | 470 kts | 250° |
| 2026-05-07 02:36 | 52.00920 | 3.55638 | 40007 ft | 469 kts | 249° |
| 2026-05-07 02:36 | 51.98298 | 3.46175 | 40002 ft | 459 kts | 239° |
| 2026-05-07 02:37 | 51.94247 | 3.38020 | 40016 ft | 466 kts | 227° |
| 2026-05-07 02:37 | 51.90311 | 3.29796 | 40029 ft | 467 kts | 238° |
| 2026-05-07 02:38 | 51.86817 | 3.20730 | 40010 ft | 472 kts | 241° |
| 2026-05-07 02:38 | 51.84427 | 3.11004 | 40025 ft | 472 kts | 260° |
| 2026-05-07 02:39 | 51.84094 | 3.00358 | 40015 ft | 470 kts | 268° |
| 2026-05-07 02:39 | 51.83478 | 2.89896 | 40032 ft | 467 kts | 260° |
| 2026-05-07 02:40 | 51.82437 | 2.79430 | 40037 ft | 481 kts | 262° |
| 2026-05-07 02:40 | 51.81690 | 2.68702 | 40015 ft | 475 kts | 264° |
| 2026-05-07 02:41 | 51.81033 | 2.58229 | 40020 ft | 469 kts | 263° |
| 2026-05-07 02:41 | 51.80676 | 2.52986 | 39807 ft | 473 kts | 263° |
| 2026-05-07 02:41 | 51.80299 | 2.47636 | 39108 ft | 480 kts | 263° |
| 2026-05-07 02:42 | 51.79916 | 2.42274 | 38327 ft | 478 kts | 263° |
| 2026-05-07 02:42 | 51.79534 | 2.36932 | 37444 ft | 476 kts | 263° |
| 2026-05-07 02:42 | 51.79160 | 2.31678 | 36656 ft | 473 kts | 264° |
| 2026-05-07 02:42 | 51.78785 | 2.26404 | 35826 ft | 471 kts | 264° |
| 2026-05-07 02:43 | 51.78410 | 2.21132 | 34907 ft | 471 kts | 264° |
| 2026-05-07 02:43 | 51.78066 | 2.15868 | 33953 ft | 471 kts | 265° |
| 2026-05-07 02:43 | 51.77754 | 2.10590 | 32783 ft | 472 kts | 265° |
| 2026-05-07 02:43 | 51.77461 | 2.05368 | 31713 ft | 471 kts | 265° |
| 2026-05-07 02:44 | 51.77168 | 2.00102 | 30674 ft | 471 kts | 265° |
| 2026-05-07 02:44 | 51.76871 | 1.94865 | 29938 ft | 462 kts | 265° |
| 2026-05-07 02:44 | 51.76568 | 1.89714 | 29069 ft | 456 kts | 265° |
| 2026-05-07 02:44 | 51.76265 | 1.84709 | 28336 ft | 449 kts | 264° |
| 2026-05-07 02:45 | 51.75959 | 1.79748 | 27629 ft | 442 kts | 264° |
| 2026-05-07 02:45 | 51.75653 | 1.74838 | 26927 ft | 435 kts | 264° |
| 2026-05-07 02:45 | 51.75352 | 1.70016 | 26239 ft | 430 kts | 264° |
| 2026-05-07 02:45 | 51.75052 | 1.65218 | 25548 ft | 426 kts | 264° |
| 2026-05-07 02:46 | 51.74753 | 1.60461 | 24880 ft | 421 kts | 264° |
| 2026-05-07 02:46 | 51.74454 | 1.55764 | 24277 ft | 420 kts | 264° |
| 2026-05-07 02:46 | 51.74154 | 1.51110 | 23678 ft | 424 kts | 264° |
| 2026-05-07 02:46 | 51.73844 | 1.46349 | 22949 ft | 424 kts | 264° |
| 2026-05-07 02:47 | 51.73535 | 1.41635 | 22280 ft | 418 kts | 264° |
| 2026-05-07 02:47 | 51.73229 | 1.36999 | 21669 ft | 412 kts | 264° |
| 2026-05-07 02:47 | 51.72926 | 1.32434 | 21048 ft | 406 kts | 264° |
| 2026-05-07 02:47 | 51.72626 | 1.27923 | 20447 ft | 403 kts | 264° |
| 2026-05-07 02:48 | 51.72332 | 1.23539 | 19855 ft | 402 kts | 264° |
| 2026-05-07 02:48 | 51.72027 | 1.18991 | 19270 ft | 402 kts | 264° |
| 2026-05-07 02:48 | 51.71723 | 1.14505 | 18680 ft | 399 kts | 264° |
| 2026-05-07 02:48 | 51.71422 | 1.10072 | 18062 ft | 394 kts | 264° |
| 2026-05-07 02:49 | 51.71123 | 1.05702 | 17411 ft | 389 kts | 264° |
| 2026-05-07 02:49 | 51.70830 | 1.01421 | 16851 ft | 385 kts | 264° |
| 2026-05-07 02:49 | 51.70536 | 0.97156 | 16262 ft | 383 kts | 264° |
| 2026-05-07 02:49 | 51.70239 | 0.92882 | 15742 ft | 381 kts | 264° |
| 2026-05-07 02:50 | 51.69943 | 0.88629 | 15282 ft | 381 kts | 264° |
| 2026-05-07 02:50 | 51.69646 | 0.84361 | 14817 ft | 381 kts | 264° |
| 2026-05-07 02:50 | 51.69353 | 0.80183 | 14359 ft | 379 kts | 264° |
| 2026-05-07 02:50 | 51.69056 | 0.75945 | 13892 ft | 378 kts | 264° |
| 2026-05-07 02:51 | 51.68758 | 0.71737 | 13386 ft | 376 kts | 264° |
| 2026-05-07 02:51 | 51.68464 | 0.67602 | 12891 ft | 374 kts | 264° |
| 2026-05-07 02:51 | 51.68165 | 0.63436 | 12409 ft | 371 kts | 264° |
| 2026-05-07 02:51 | 51.67870 | 0.59334 | 11959 ft | 366 kts | 264° |
| 2026-05-07 02:52 | 51.67579 | 0.55308 | 11512 ft | 357 kts | 264° |
| 2026-05-07 02:52 | 51.67292 | 0.51356 | 11079 ft | 349 kts | 264° |
| 2026-05-07 02:52 | 51.67019 | 0.47633 | 10631 ft | 324 kts | 264° |
| 2026-05-07 02:52 | 51.66765 | 0.44197 | 10262 ft | 294 kts | 264° |
| 2026-05-07 02:53 | 51.66532 | 0.41036 | 10052 ft | 278 kts | 264° |
| 2026-05-07 02:53 | 51.66301 | 0.37907 | 9680 ft | 290 kts | 264° |
| 2026-05-07 02:53 | 51.66064 | 0.34664 | 9413 ft | 290 kts | 264° |
| 2026-05-07 02:53 | 51.65829 | 0.31488 | 9223 ft | 281 kts | 264° |
| 2026-05-07 02:54 | 51.65596 | 0.28358 | 8610 ft | 285 kts | 264° |
| 2026-05-07 02:54 | 51.65360 | 0.25232 | 8216 ft | 281 kts | 263° |
| 2026-05-07 02:54 | 51.65122 | 0.22176 | 7871 ft | 267 kts | 263° |
| 2026-05-07 02:54 | 51.64900 | 0.19276 | 7487 ft | 251 kts | 263° |
| 2026-05-07 02:55 | 51.64701 | 0.16571 | 7174 ft | 235 kts | 263° |
| 2026-05-07 02:55 | 51.64524 | 0.14043 | 6981 ft | 230 kts | 263° |
| 2026-05-07 02:55 | 51.64347 | 0.11402 | 6862 ft | 238 kts | 263° |
| 2026-05-07 02:55 | 51.64172 | 0.08718 | 6733 ft | 243 kts | 263° |
| 2026-05-07 02:56 | 51.64000 | 0.06032 | 6585 ft | 243 kts | 263° |
| 2026-05-07 02:56 | 51.63831 | 0.03349 | 6521 ft | 237 kts | 263° |
| 2026-05-07 02:56 | 51.63667 | 0.00698 | 6266 ft | 240 kts | 263° |
| 2026-05-07 02:56 | 51.63505 | -0.01965 | 6107 ft | 237 kts | 263° |
| 2026-05-07 02:57 | 51.63344 | -0.04596 | 5943 ft | 234 kts | 263° |
| 2026-05-07 02:57 | 51.63184 | -0.07188 | 5805 ft | 231 kts | 263° |
| 2026-05-07 02:57 | 51.63023 | -0.09750 | 5678 ft | 231 kts | 263° |
| 2026-05-07 02:57 | 51.62858 | -0.12322 | 5565 ft | 235 kts | 263° |
| 2026-05-07 02:58 | 51.62688 | -0.14961 | 5428 ft | 237 kts | 263° |
| 2026-05-07 02:58 | 51.62575 | -0.16707 | 5335 ft | 236 kts | 263° |
| 2026-05-07 02:58 | 51.62405 | -0.19320 | 5207 ft | 235 kts | 263° |
| 2026-05-07 02:58 | 51.62234 | -0.21929 | 5072 ft | 233 kts | 263° |
| 2026-05-07 02:59 | 51.62061 | -0.24517 | 4949 ft | 232 kts | 263° |
| 2026-05-07 02:59 | 51.61887 | -0.27097 | 4815 ft | 231 kts | 263° |
| 2026-05-07 02:59 | 51.61713 | -0.29662 | 4695 ft | 229 kts | 263° |
| 2026-05-07 02:59 | 51.61538 | -0.32217 | 4569 ft | 229 kts | 263° |
| 2026-05-07 03:00 | 51.61365 | -0.34725 | 4452 ft | 228 kts | 263° |
| 2026-05-07 03:00 | 51.61188 | -0.37255 | 4339 ft | 228 kts | 263° |
| 2026-05-07 03:00 | 51.61009 | -0.39816 | 4223 ft | 229 kts | 263° |
| 2026-05-07 03:00 | 51.60830 | -0.42349 | 4118 ft | 229 kts | 263° |
| 2026-05-07 03:01 | 51.60649 | -0.44908 | 4002 ft | 230 kts | 263° |
| 2026-05-07 03:01 | 51.60470 | -0.47428 | 3927 ft | 229 kts | 263° |
| 2026-05-07 03:01 | 51.60288 | -0.49977 | 3816 ft | 229 kts | 263° |
| 2026-05-07 03:01 | 51.60106 | -0.52528 | 3725 ft | 229 kts | 263° |
| 2026-05-07 03:02 | 51.59923 | -0.55078 | 3672 ft | 228 kts | 263° |
| 2026-05-07 03:02 | 51.59742 | -0.57603 | 3610 ft | 227 kts | 263° |
| 2026-05-07 03:02 | 51.59559 | -0.60127 | 3616 ft | 227 kts | 263° |
| 2026-05-07 03:02 | 51.59374 | -0.62644 | 3620 ft | 231 kts | 263° |
| 2026-05-07 03:03 | 51.59182 | -0.65221 | 3604 ft | 232 kts | 263° |
| 2026-05-07 03:03 | 51.58987 | -0.67815 | 3433 ft | 234 kts | 263° |
| 2026-05-07 03:03 | 51.58790 | -0.70401 | 3277 ft | 228 kts | 263° |
| 2026-05-07 03:03 | 51.58599 | -0.72883 | 3136 ft | 223 kts | 263° |
| 2026-05-07 03:04 | 51.58412 | -0.75280 | 3027 ft | 206 kts | 262° |
| 2026-05-07 03:04 | 51.58007 | -0.77345 | 2951 ft | 190 kts | 233° |
| 2026-05-07 03:04 | 51.56958 | -0.78537 | 2966 ft | 187 kts | 195° |
| 2026-05-07 03:04 | 51.55679 | -0.78863 | 2974 ft | 187 kts | 182° |
| 2026-05-07 03:05 | 51.54390 | -0.78582 | 2976 ft | 187 kts | 165° |
| 2026-05-07 03:05 | 51.53130 | -0.77995 | 2975 ft | 191 kts | 163° |
| 2026-05-07 03:05 | 51.51848 | -0.77382 | 2968 ft | 190 kts | 163° |
| 2026-05-07 03:05 | 51.50640 | -0.76807 | 2965 ft | 174 kts | 163° |
| 2026-05-07 03:06 | 51.49515 | -0.76277 | 2953 ft | 165 kts | 163° |
| 2026-05-07 03:06 | 51.48422 | -0.75721 | 2956 ft | 164 kts | 156° |
| 2026-05-07 03:06 | 51.47536 | -0.74607 | 2947 ft | 165 kts | 118° |
| 2026-05-07 03:06 | 51.47391 | -0.72828 | 2965 ft | 164 kts | 77° |
| 2026-05-07 03:07 | 51.47607 | -0.71022 | 2924 ft | 168 kts | 86° |
| 2026-05-07 03:07 | 51.47616 | -0.69138 | 2698 ft | 166 kts | 90° |
| 2026-05-07 03:07 | 51.47612 | -0.67338 | 2456 ft | 155 kts | 89° |
| 2026-05-07 03:07 | 51.47619 | -0.65696 | 2264 ft | 140 kts | 89° |
| 2026-05-07 03:08 | 51.47629 | -0.64114 | 2098 ft | 142 kts | 89° |
| 2026-05-07 03:08 | 51.47640 | -0.62568 | 1904 ft | 138 kts | 89° |
| 2026-05-07 03:08 | 51.47650 | -0.61035 | 1703 ft | 138 kts | 89° |
| 2026-05-07 03:08 | 51.47660 | -0.59479 | 1511 ft | 138 kts | 89° |
| 2026-05-07 03:09 | 51.47670 | -0.57960 | 1327 ft | 138 kts | 89° |
| 2026-05-07 03:09 | 51.47680 | -0.56396 | 1117 ft | 137 kts | 89° |
| 2026-05-07 03:09 | 51.47690 | -0.54882 | 907 ft | 138 kts | 88° |
| 2026-05-07 03:09 | 51.47711 | -0.53324 | 690 ft | 138 kts | 88° |
| 2026-05-07 03:10 | 51.47720 | -0.51811 | 538 ft | 137 kts | 88° |
| 2026-05-07 03:10 | 51.47735 | -0.50276 | 361 ft | 138 kts | 88° |
| 2026-05-07 03:10 | 51.47755 | -0.48738 | 161 ft | 136 kts | 89° |
| 2026-05-07 03:10 | 51.47762 | -0.47228 | 94 ft | 128 kts | 88° |
| 2026-05-07 03:11 | 51.47766 | -0.45979 | 92 ft | 91 kts | 91° |
| 2026-05-07 03:11 | 51.47761 | -0.45210 | 94 ft | 47 kts | 90° |
| 2026-05-07 03:11 | 51.47717 | -0.44863 | 99 ft | 14 kts | 146° |
| 2026-05-07 03:11 | 51.47685 | -0.44831 | 100 ft | 0 kts | 147° |
| 2026-05-07 03:12 | 51.47672 | -0.44817 | 100 ft | 6 kts | 147° |
| 2026-05-07 03:12 | 51.47610 | -0.44758 | 98 ft | 12 kts | 132° |
| 2026-05-07 03:12 | 51.47602 | -0.44658 | 95 ft | 11 kts | 97° |
| 2026-05-07 03:12 | 51.47597 | -0.44496 | 92 ft | 11 kts | 91° |
| 2026-05-07 03:13 | 51.47596 | -0.44408 | 96 ft | 11 kts | 91° |
| 2026-05-07 03:13 | 51.47595 | -0.44243 | 95 ft | 18 kts | 91° |
| 2026-05-07 03:13 | 51.47589 | -0.44109 | 93 ft | 5 kts | 109° |
| 2026-05-07 03:13 | 51.47583 | -0.44023 | 93 ft | 11 kts | 88° |
| 2026-05-07 03:14 | 51.47587 | -0.43848 | 90 ft | 19 kts | 86° |
| 2026-05-07 03:14 | 51.47590 | -0.43666 | 92 ft | 17 kts | 99° |
| 2026-05-07 03:14 | 51.47525 | -0.43596 | 93 ft | 11 kts | 174° |
| 2026-05-07 03:15 | 51.47417 | -0.43593 | 86 ft | 20 kts | 179° |
| 2026-05-07 03:15 | 51.47246 | -0.43591 | 85 ft | 19 kts | 179° |
| 2026-05-07 03:15 | 51.47105 | -0.43607 | 73 ft | 24 kts | 182° |
| 2026-05-07 03:15 | 51.46984 | -0.43608 | 87 ft | 16 kts | 178° |
| 2026-05-07 03:16 | 51.46870 | -0.43598 | 89 ft | 18 kts | 180° |
| 2026-05-07 03:16 | 51.46778 | -0.43682 | 88 ft | 16 kts | 251° |
| 2026-05-07 03:16 | 51.46769 | -0.43901 | 83 ft | 21 kts | 269° |
| 2026-05-07 03:16 | 51.46755 | -0.44138 | 90 ft | 23 kts | 267° |
| 2026-05-07 03:17 | 51.46753 | -0.44355 | 91 ft | 18 kts | 269° |
| 2026-05-07 03:17 | 51.46753 | -0.44571 | 94 ft | 20 kts | 270° |
| 2026-05-07 03:17 | 51.46753 | -0.44644 | 97 ft | 5 kts | 270° |
| 2026-05-07 03:17 | 51.46754 | -0.44726 | 97 ft | 10 kts | 270° |
| 2026-05-07 03:18 | 51.46753 | -0.44859 | 96 ft | 14 kts | 269° |
| 2026-05-07 03:18 | 51.46753 | -0.45044 | 96 ft | 19 kts | 270° |
| 2026-05-07 03:18 | 51.46753 | -0.45063 | 97 ft | 0 kts | 270° |
| 2026-05-07 03:19 | 51.46753 | -0.45092 | 97 ft | 6 kts | 270° |
| 2026-05-07 03:19 | 51.46772 | -0.45157 | 102 ft | 7 kts | 321° |
| 2026-05-07 03:19 | 51.46818 | -0.45178 | 99 ft | 1 kts | 2° |
| 2026-05-07 03:19 | 51.46826 | -0.45177 | 99 ft | 0 kts | 3° |